sensor_id;sensor_type;location;lat;lon;timestamp;pressure;altitude;pressure_sealevel;temperature
72054;BMP280;59918;51.280;7.950;2023-08-01T00:01:08;96431.19;;;16.58
72054;BMP280;59918;51.280;7.950;2023-08-01T00:03:33;96417.97;;;16.59
72054;BMP280;59918;51.280;7.950;2023-08-01T00:05:58;96407.31;;;16.61
72054;BMP280;59918;51.280;7.950;2023-08-01T00:08:33;96411.16;;;16.63
72054;BMP280;59918;51.280;7.950;2023-08-01T00:10:58;96401.56;;;16.64
72054;BMP280;59918;51.280;7.950;2023-08-01T00:13:29;96413.50;;;16.65
72054;BMP280;59918;51.280;7.950;2023-08-01T00:15:55;96398.44;;;16.67
72054;BMP280;59918;51.280;7.950;2023-08-01T00:18:20;96408.53;;;16.68
72054;BMP280;59918;51.280;7.950;2023-08-01T00:20:45;96422.56;;;16.67
72054;BMP280;59918;51.280;7.950;2023-08-01T00:23:11;96420.53;;;16.64
72054;BMP280;59918;51.280;7.950;2023-08-01T00:25:36;96416.09;;;16.65
72054;BMP280;59918;51.280;7.950;2023-08-01T00:28:04;96396.09;;;16.65
72054;BMP280;59918;51.280;7.950;2023-08-01T00:30:29;96398.97;;;16.64
72054;BMP280;59918;51.280;7.950;2023-08-01T00:32:54;96400.03;;;16.63
72054;BMP280;59918;51.280;7.950;2023-08-01T00:35:20;96380.31;;;16.62
72054;BMP280;59918;51.280;7.950;2023-08-01T00:37:45;96393.00;;;16.63
72054;BMP280;59918;51.280;7.950;2023-08-01T00:40:10;96392.75;;;16.65
72054;BMP280;59918;51.280;7.950;2023-08-01T00:42:39;96382.63;;;16.63
72054;BMP280;59918;51.280;7.950;2023-08-01T00:45:05;96372.81;;;16.60
72054;BMP280;59918;51.280;7.950;2023-08-01T00:47:30;96368.94;;;16.58
72054;BMP280;59918;51.280;7.950;2023-08-01T00:49:56;96358.53;;;16.58
72054;BMP280;59918;51.280;7.950;2023-08-01T00:52:21;96354.16;;;16.58
72054;BMP280;59918;51.280;7.950;2023-08-01T00:54:47;96351.25;;;16.60
72054;BMP280;59918;51.280;7.950;2023-08-01T00:57:16;96351.00;;;16.61
72054;BMP280;59918;51.280;7.950;2023-08-01T00:59:41;96338.59;;;16.58
72054;BMP280;59918;51.280;7.950;2023-08-01T01:02:06;96318.59;;;16.59
72054;BMP280;59918;51.280;7.950;2023-08-01T01:04:32;96296.00;;;16.59
72054;BMP280;59918;51.280;7.950;2023-08-01T01:09:29;96308.75;;;16.56
72054;BMP280;59918;51.280;7.950;2023-08-01T01:11:55;96312.91;;;16.57
72054;BMP280;59918;51.280;7.950;2023-08-01T01:14:20;96302.78;;;16.55
72054;BMP280;59918;51.280;7.950;2023-08-01T01:16:45;96300.69;;;16.57
72054;BMP280;59918;51.280;7.950;2023-08-01T01:19:10;96275.81;;;16.56
72054;BMP280;59918;51.280;7.950;2023-08-01T01:21:40;96295.78;;;16.56
72054;BMP280;59918;51.280;7.950;2023-08-01T01:24:08;96318.63;;;16.54
72054;BMP280;59918;51.280;7.950;2023-08-01T01:26:34;96322.28;;;16.53
72054;BMP280;59918;51.280;7.950;2023-08-01T01:29:06;96338.34;;;16.55
72054;BMP280;59918;51.280;7.950;2023-08-01T01:31:32;96309.31;;;16.53
72054;BMP280;59918;51.280;7.950;2023-08-01T01:33:59;96307.75;;;16.52
72054;BMP280;59918;51.280;7.950;2023-08-01T01:36:27;96266.81;;;16.49
72054;BMP280;59918;51.280;7.950;2023-08-01T01:38:52;96267.34;;;16.46
72054;BMP280;59918;51.280;7.950;2023-08-01T01:41:18;96205.66;;;16.43
72054;BMP280;59918;51.280;7.950;2023-08-01T01:43:43;96214.47;;;16.42
72054;BMP280;59918;51.280;7.950;2023-08-01T01:46:11;96223.31;;;16.41
72054;BMP280;59918;51.280;7.950;2023-08-01T01:48:42;96217.16;;;16.37
72054;BMP280;59918;51.280;7.950;2023-08-01T01:51:07;96225.97;;;16.36
72054;BMP280;59918;51.280;7.950;2023-08-01T01:53:33;96238.94;;;16.36
72054;BMP280;59918;51.280;7.950;2023-08-01T01:55:58;96235.78;;;16.39
72054;BMP280;59918;51.280;7.950;2023-08-01T01:58:23;96227.44;;;16.42
72054;BMP280;59918;51.280;7.950;2023-08-01T02:00:54;96243.50;;;16.44
72054;BMP280;59918;51.280;7.950;2023-08-01T02:03:19;96218.38;;;16.44
72054;BMP280;59918;51.280;7.950;2023-08-01T02:05:45;96221.72;;;16.45
72054;BMP280;59918;51.280;7.950;2023-08-01T02:08:18;96221.72;;;16.45
72054;BMP280;59918;51.280;7.950;2023-08-01T02:10:43;96216.28;;;16.46
72054;BMP280;59918;51.280;7.950;2023-08-01T02:13:08;96227.69;;;16.45
72054;BMP280;59918;51.280;7.950;2023-08-01T02:15:33;96217.78;;;16.47
72054;BMP280;59918;51.280;7.950;2023-08-01T02:17:58;96214.16;;;16.48
72054;BMP280;59918;51.280;7.950;2023-08-01T02:20:24;96209.75;;;16.49
72054;BMP280;59918;51.280;7.950;2023-08-01T02:22:49;96195.22;;;16.48
72054;BMP280;59918;51.280;7.950;2023-08-01T02:25:14;96194.94;;;16.49
72054;BMP280;59918;51.280;7.950;2023-08-01T02:27:39;96203.00;;;16.48
72054;BMP280;59918;51.280;7.950;2023-08-01T02:30:08;96211.28;;;16.50
72054;BMP280;59918;51.280;7.950;2023-08-01T02:32:33;96212.84;;;16.51
72054;BMP280;59918;51.280;7.950;2023-08-01T02:34:59;96194.69;;;16.51
72054;BMP280;59918;51.280;7.950;2023-08-01T02:37:24;96201.69;;;16.50
72054;BMP280;59918;51.280;7.950;2023-08-01T02:39:49;96195.72;;;16.50
72054;BMP280;59918;51.280;7.950;2023-08-01T02:42:15;96199.84;;;16.51
72054;BMP280;59918;51.280;7.950;2023-08-01T02:44:46;96201.13;;;16.53
72054;BMP280;59918;51.280;7.950;2023-08-01T02:47:11;96203.72;;;16.53
72054;BMP280;59918;51.280;7.950;2023-08-01T02:49:36;96213.81;;;16.55
72054;BMP280;59918;51.280;7.950;2023-08-01T02:52:02;96228.81;;;16.58
72054;BMP280;59918;51.280;7.950;2023-08-01T02:54:27;96221.25;;;16.61
72054;BMP280;59918;51.280;7.950;2023-08-01T02:56:58;96222.50;;;16.64
72054;BMP280;59918;51.280;7.950;2023-08-01T02:59:23;96236.78;;;16.66
72054;BMP280;59918;51.280;7.950;2023-08-01T03:01:49;96227.66;;;16.69
72054;BMP280;59918;51.280;7.950;2023-08-01T03:04:14;96228.69;;;16.68
72054;BMP280;59918;51.280;7.950;2023-08-01T03:06:39;96230.53;;;16.67
72054;BMP280;59918;51.280;7.950;2023-08-01T03:09:10;96228.69;;;16.68
72054;BMP280;59918;51.280;7.950;2023-08-01T03:11:35;96229.00;;;16.66
72054;BMP280;59918;51.280;7.950;2023-08-01T03:14:01;96236.00;;;16.66
72054;BMP280;59918;51.280;7.950;2023-08-01T03:16:26;96226.66;;;16.65
72054;BMP280;59918;51.280;7.950;2023-08-01T03:18:51;96218.88;;;16.65
72054;BMP280;59918;51.280;7.950;2023-08-01T03:21:17;96221.53;;;16.60
72054;BMP280;59918;51.280;7.950;2023-08-01T03:23:42;96227.78;;;16.59
72054;BMP280;59918;51.280;7.950;2023-08-01T03:26:07;96232.69;;;16.60
72054;BMP280;59918;51.280;7.950;2023-08-01T03:28:39;96228.28;;;16.61
72054;BMP280;59918;51.280;7.950;2023-08-01T03:31:04;96228.53;;;16.59
72054;BMP280;59918;51.280;7.950;2023-08-01T03:33:29;96226.72;;;16.60
72054;BMP280;59918;51.280;7.950;2023-08-01T03:35:54;96217.91;;;16.61
72054;BMP280;59918;51.280;7.950;2023-08-01T03:38:20;96223.09;;;16.61
72054;BMP280;59918;51.280;7.950;2023-08-01T03:40:51;96227.22;;;16.62
72054;BMP280;59918;51.280;7.950;2023-08-01T03:43:16;96226.94;;;16.63
72054;BMP280;59918;51.280;7.950;2023-08-01T03:45:41;96226.94;;;16.63
72054;BMP280;59918;51.280;7.950;2023-08-01T03:48:07;96232.91;;;16.64
72054;BMP280;59918;51.280;7.950;2023-08-01T03:50:32;96228.50;;;16.64
72054;BMP280;59918;51.280;7.950;2023-08-01T03:53:00;96228.19;;;16.66
72054;BMP280;59918;51.280;7.950;2023-08-01T03:55:26;96234.19;;;16.66
72054;BMP280;59918;51.280;7.950;2023-08-01T03:57:51;96235.50;;;16.64
72054;BMP280;59918;51.280;7.950;2023-08-01T04:00:16;96254.94;;;16.66
72054;BMP280;59918;51.280;7.950;2023-08-01T04:02:42;96258.81;;;16.69
72054;BMP280;59918;51.280;7.950;2023-08-01T04:05:08;96256.56;;;16.62
72054;BMP280;59918;51.280;7.950;2023-08-01T04:07:37;96265.94;;;16.58
72054;BMP280;59918;51.280;7.950;2023-08-01T04:10:03;96266.59;;;16.45
72054;BMP280;59918;51.280;7.950;2023-08-01T04:12:29;96270.53;;;16.38
72054;BMP280;59918;51.280;7.950;2023-08-01T04:14:55;96274.25;;;16.32
72054;BMP280;59918;51.280;7.950;2023-08-01T04:17:26;96275.31;;;16.31
72054;BMP280;59918;51.280;7.950;2023-08-01T04:19:53;96269.88;;;16.28
72054;BMP280;59918;51.280;7.950;2023-08-01T04:22:19;96277.94;;;16.26
72054;BMP280;59918;51.280;7.950;2023-08-01T04:24:50;96285.78;;;16.21
72054;BMP280;59918;51.280;7.950;2023-08-01T04:27:15;96288.88;;;16.23
72054;BMP280;59918;51.280;7.950;2023-08-01T04:29:40;96281.84;;;16.24
72054;BMP280;59918;51.280;7.950;2023-08-01T04:32:06;96288.63;;;16.20
72054;BMP280;59918;51.280;7.950;2023-08-01T04:34:31;96286.56;;;16.17
72054;BMP280;59918;51.280;7.950;2023-08-01T04:37:00;96293.56;;;16.16
72054;BMP280;59918;51.280;7.950;2023-08-01T04:39:25;96304.03;;;16.06
72054;BMP280;59918;51.280;7.950;2023-08-01T04:41:50;96293.72;;;16.02
72054;BMP280;59918;51.280;7.950;2023-08-01T04:44:16;96299.44;;;15.99
72054;BMP280;59918;51.280;7.950;2023-08-01T04:46:41;96309.34;;;15.92
72054;BMP280;59918;51.280;7.950;2023-08-01T04:49:06;96306.53;;;15.88
72054;BMP280;59918;51.280;7.950;2023-08-01T04:51:31;96311.47;;;15.85
72054;BMP280;59918;51.280;7.950;2023-08-01T04:54:00;96307.28;;;15.89
72054;BMP280;59918;51.280;7.950;2023-08-01T04:56:25;96307.28;;;15.89
72054;BMP280;59918;51.280;7.950;2023-08-01T04:58:51;96311.69;;;15.88
72054;BMP280;59918;51.280;7.950;2023-08-01T05:01:16;96313.78;;;15.86
72054;BMP280;59918;51.280;7.950;2023-08-01T05:03:41;96320.28;;;15.84
72054;BMP280;59918;51.280;7.950;2023-08-01T05:06:06;96322.91;;;15.79
72054;BMP280;59918;51.280;7.950;2023-08-01T05:08:32;96326.50;;;15.83
72054;BMP280;59918;51.280;7.950;2023-08-01T05:11:00;96328.03;;;15.89
72054;BMP280;59918;51.280;7.950;2023-08-01T05:13:26;96327.50;;;15.92
72054;BMP280;59918;51.280;7.950;2023-08-01T05:15:51;96331.59;;;15.98
72054;BMP280;59918;51.280;7.950;2023-08-01T05:18:17;96331.53;;;16.03
72054;BMP280;59918;51.280;7.950;2023-08-01T05:20:42;96338.53;;;16.02
72054;BMP280;59918;51.280;7.950;2023-08-01T05:23:08;96329.22;;;16.01
72054;BMP280;59918;51.280;7.950;2023-08-01T05:25:36;96337.28;;;16.00
72054;BMP280;59918;51.280;7.950;2023-08-01T05:28:01;96334.69;;;16.00
72054;BMP280;59918;51.280;7.950;2023-08-01T05:30:27;96333.13;;;15.99
72054;BMP280;59918;51.280;7.950;2023-08-01T05:32:52;96330.53;;;15.99
72054;BMP280;59918;51.280;7.950;2023-08-01T05:35:18;96336.28;;;15.96
72054;BMP280;59918;51.280;7.950;2023-08-01T05:37:43;96346.91;;;15.94
72054;BMP280;59918;51.280;7.950;2023-08-01T05:40:14;96357.03;;;15.91
72054;BMP280;59918;51.280;7.950;2023-08-01T05:42:40;96356.03;;;15.87
72054;BMP280;59918;51.280;7.950;2023-08-01T05:45:05;96350.59;;;15.83
72054;BMP280;59918;51.280;7.950;2023-08-01T05:47:31;96351.19;;;15.75
72054;BMP280;59918;51.280;7.950;2023-08-01T05:50:00;96355.09;;;15.73
72054;BMP280;59918;51.280;7.950;2023-08-01T05:52:25;96358.69;;;15.77
72054;BMP280;59918;51.280;7.950;2023-08-01T05:54:50;96362.56;;;15.79
72054;BMP280;59918;51.280;7.950;2023-08-01T05:57:16;96363.88;;;15.77
72054;BMP280;59918;51.280;7.950;2023-08-01T05:59:41;96371.66;;;15.72
72054;BMP280;59918;51.280;7.950;2023-08-01T06:02:06;96376.84;;;15.72
72054;BMP280;59918;51.280;7.950;2023-08-01T06:04:32;96386.13;;;15.78
72054;BMP280;59918;51.280;7.950;2023-08-01T06:07:00;96395.44;;;15.84
72054;BMP280;59918;51.280;7.950;2023-08-01T06:09:25;96385.22;;;15.97
72054;BMP280;59918;51.280;7.950;2023-08-01T06:11:51;96382.53;;;16.12
72054;BMP280;59918;51.280;7.950;2023-08-01T06:14:17;96383.75;;;16.24
72054;BMP280;59918;51.280;7.950;2023-08-01T06:16:42;96384.91;;;16.42
72054;BMP280;59918;51.280;7.950;2023-08-01T06:19:07;96385.91;;;16.45
72054;BMP280;59918;51.280;7.950;2023-08-01T06:21:36;96382.50;;;16.50
72054;BMP280;59918;51.280;7.950;2023-08-01T06:24:01;96402.16;;;16.56
72054;BMP280;59918;51.280;7.950;2023-08-01T06:26:27;96400.38;;;16.51
72054;BMP280;59918;51.280;7.950;2023-08-01T06:28:52;96394.53;;;16.41
72054;BMP280;59918;51.280;7.950;2023-08-01T06:31:18;96400.06;;;16.30
72054;BMP280;59918;51.280;7.950;2023-08-01T06:33:43;96400.88;;;16.25
72054;BMP280;59918;51.280;7.950;2023-08-01T06:36:14;96395.69;;;16.25
72054;BMP280;59918;51.280;7.950;2023-08-01T06:38:39;96399.81;;;16.26
72054;BMP280;59918;51.280;7.950;2023-08-01T06:41:05;96395.69;;;16.25
72054;BMP280;59918;51.280;7.950;2023-08-01T06:43:30;96400.09;;;16.25
72054;BMP280;59918;51.280;7.950;2023-08-01T06:45:55;96395.13;;;16.28
72054;BMP280;59918;51.280;7.950;2023-08-01T06:48:24;96397.69;;;16.33
72054;BMP280;59918;51.280;7.950;2023-08-01T06:50:49;96397.66;;;16.38
72054;BMP280;59918;51.280;7.950;2023-08-01T06:53:14;96403.75;;;16.52
72054;BMP280;59918;51.280;7.950;2023-08-01T06:55:40;96397.75;;;16.56
72054;BMP280;59918;51.280;7.950;2023-08-01T06:58:05;96405.31;;;16.53
72054;BMP280;59918;51.280;7.950;2023-08-01T07:00:31;96400.72;;;16.45
72054;BMP280;59918;51.280;7.950;2023-08-01T07:02:56;96396.88;;;16.38
72054;BMP280;59918;51.280;7.950;2023-08-01T07:05:24;96407.78;;;16.35
72054;BMP280;59918;51.280;7.950;2023-08-01T07:07:49;96409.09;;;16.37
72054;BMP280;59918;51.280;7.950;2023-08-01T07:10:15;96405.34;;;16.48
72054;BMP280;59918;51.280;7.950;2023-08-01T07:12:40;96410.34;;;16.68
72054;BMP280;59918;51.280;7.950;2023-08-01T07:15:06;96412.69;;;16.92
72054;BMP280;59918;51.280;7.950;2023-08-01T07:17:31;96412.81;;;17.06
72054;BMP280;59918;51.280;7.950;2023-08-01T07:20:02;96414.56;;;17.15
72054;BMP280;59918;51.280;7.950;2023-08-01T07:22:28;96409.63;;;17.14
72054;BMP280;59918;51.280;7.950;2023-08-01T07:24:54;96419.25;;;17.13
72054;BMP280;59918;51.280;7.950;2023-08-01T07:27:19;96418.44;;;17.17
72054;BMP280;59918;51.280;7.950;2023-08-01T07:29:50;96408.06;;;17.13
72054;BMP280;59918;51.280;7.950;2023-08-01T07:32:16;96410.16;;;17.16
72054;BMP280;59918;51.280;7.950;2023-08-01T07:34:41;96408.56;;;17.15
72054;BMP280;59918;51.280;7.950;2023-08-01T07:37:06;96409.75;;;17.27
72054;BMP280;59918;51.280;7.950;2023-08-01T07:39:31;96415.38;;;17.34
72054;BMP280;59918;51.280;7.950;2023-08-01T07:42:00;96420.56;;;17.34
72054;BMP280;59918;51.280;7.950;2023-08-01T07:44:25;96407.66;;;17.29
72054;BMP280;59918;51.280;7.950;2023-08-01T07:46:53;96423.78;;;17.26
72054;BMP280;59918;51.280;7.950;2023-08-01T07:49:18;96421.88;;;17.08
72054;BMP280;59918;51.280;7.950;2023-08-01T07:51:43;96426.69;;;16.96
72054;BMP280;59918;51.280;7.950;2023-08-01T07:54:08;96435.00;;;16.93
72054;BMP280;59918;51.280;7.950;2023-08-01T07:56:36;96442.13;;;16.83
72054;BMP280;59918;51.280;7.950;2023-08-01T07:59:02;96437.38;;;16.62
72054;BMP280;59918;51.280;7.950;2023-08-01T08:01:27;96433.59;;;16.49
72054;BMP280;59918;51.280;7.950;2023-08-01T08:03:52;96438.94;;;16.63
72054;BMP280;59918;51.280;7.950;2023-08-01T08:06:17;96449.28;;;16.96
72054;BMP280;59918;51.280;7.950;2023-08-01T08:08:42;96437.78;;;17.02
72054;BMP280;59918;51.280;7.950;2023-08-01T08:11:08;96446.31;;;17.07
72054;BMP280;59918;51.280;7.950;2023-08-01T08:13:36;96456.28;;;17.23
72054;BMP280;59918;51.280;7.950;2023-08-01T08:16:01;96443.28;;;17.23
72054;BMP280;59918;51.280;7.950;2023-08-01T08:18:27;96447.88;;;17.31
72054;BMP280;59918;51.280;7.950;2023-08-01T08:20:52;96449.97;;;17.53
72054;BMP280;59918;51.280;7.950;2023-08-01T08:23:17;96440.84;;;17.73
72054;BMP280;59918;51.280;7.950;2023-08-01T08:25:42;96436.50;;;17.87
72054;BMP280;59918;51.280;7.950;2023-08-01T08:28:08;96443.66;;;17.95
72054;BMP280;59918;51.280;7.950;2023-08-01T08:30:33;96450.53;;;18.09
72054;BMP280;59918;51.280;7.950;2023-08-01T08:32:59;96442.75;;;18.09
72054;BMP280;59918;51.280;7.950;2023-08-01T08:35:25;96442.16;;;17.94
72054;BMP280;59918;51.280;7.950;2023-08-01T08:37:53;96447.41;;;17.71
72054;BMP280;59918;51.280;7.950;2023-08-01T08:40:18;96443.94;;;17.75
72054;BMP280;59918;51.280;7.950;2023-08-01T08:42:45;96448.59;;;17.96
72054;BMP280;59918;51.280;7.950;2023-08-01T08:45:11;96451.72;;;18.17
72054;BMP280;59918;51.280;7.950;2023-08-01T08:47:43;96451.53;;;18.13
72054;BMP280;59918;51.280;7.950;2023-08-01T08:50:10;96443.13;;;17.98
72054;BMP280;59918;51.280;7.950;2023-08-01T08:52:36;96453.16;;;18.04
72054;BMP280;59918;51.280;7.950;2023-08-01T08:55:05;96445.38;;;18.04
72054;BMP280;59918;51.280;7.950;2023-08-01T08:57:31;96444.13;;;18.20
72054;BMP280;59918;51.280;7.950;2023-08-01T08:59:58;96450.09;;;18.39
72054;BMP280;59918;51.280;7.950;2023-08-01T09:02:24;96453.31;;;18.49
72054;BMP280;59918;51.280;7.950;2023-08-01T09:04:52;96449.63;;;18.82
72054;BMP280;59918;51.280;7.950;2023-08-01T09:07:19;96450.63;;;18.86
72054;BMP280;59918;51.280;7.950;2023-08-01T09:09:48;96450.03;;;18.89
72054;BMP280;59918;51.280;7.950;2023-08-01T09:12:20;96445.28;;;19.36
72054;BMP280;59918;51.280;7.950;2023-08-01T09:14:49;96447.00;;;19.53
72054;BMP280;59918;51.280;7.950;2023-08-01T09:17:18;96453.19;;;19.84
72054;BMP280;59918;51.280;7.950;2023-08-01T09:19:44;96474.88;;;20.28
72054;BMP280;59918;51.280;7.950;2023-08-01T09:22:10;96450.47;;;20.67
72054;BMP280;59918;51.280;7.950;2023-08-01T09:24:36;96438.25;;;20.76
72054;BMP280;59918;51.280;7.950;2023-08-01T09:27:07;96453.19;;;20.84
72054;BMP280;59918;51.280;7.950;2023-08-01T09:29:32;96450.31;;;21.24
72054;BMP280;59918;51.280;7.950;2023-08-01T09:31:58;96444.19;;;21.28
72054;BMP280;59918;51.280;7.950;2023-08-01T09:34:25;96455.03;;;21.14
72054;BMP280;59918;51.280;7.950;2023-08-01T09:36:58;96449.03;;;20.83
72054;BMP280;59918;51.280;7.950;2023-08-01T09:39:24;96443.94;;;20.78
72054;BMP280;59918;51.280;7.950;2023-08-01T09:41:59;96449.06;;;21.22
72054;BMP280;59918;51.280;7.950;2023-08-01T09:44:25;96452.66;;;21.81
72054;BMP280;59918;51.280;7.950;2023-08-01T09:47:01;96444.41;;;22.12
72054;BMP280;59918;51.280;7.950;2023-08-01T09:49:30;96451.94;;;21.97
72054;BMP280;59918;51.280;7.950;2023-08-01T09:51:56;96450.69;;;21.86
72054;BMP280;59918;51.280;7.950;2023-08-01T09:54:22;96450.38;;;21.88
72054;BMP280;59918;51.280;7.950;2023-08-01T09:56:49;96448.50;;;21.71
72054;BMP280;59918;51.280;7.950;2023-08-01T09:59:30;96479.50;;;21.18
72054;BMP280;59918;51.280;7.950;2023-08-01T10:01:56;96474.09;;;20.41
72054;BMP280;59918;51.280;7.950;2023-08-01T10:04:32;96474.38;;;20.04
72054;BMP280;59918;51.280;7.950;2023-08-01T10:07:08;96474.03;;;19.84
72054;BMP280;59918;51.280;7.950;2023-08-01T10:09:36;96458.94;;;19.94
72054;BMP280;59918;51.280;7.950;2023-08-01T10:12:05;96454.22;;;20.75
72054;BMP280;59918;51.280;7.950;2023-08-01T10:14:35;96446.66;;;21.80
72054;BMP280;59918;51.280;7.950;2023-08-01T10:17:05;96454.41;;;22.77
72054;BMP280;59918;51.280;7.950;2023-08-01T10:19:32;96448.63;;;23.09
72054;BMP280;59918;51.280;7.950;2023-08-01T10:21:57;96457.97;;;22.56
72054;BMP280;59918;51.280;7.950;2023-08-01T10:24:25;96456.56;;;22.67
72054;BMP280;59918;51.280;7.950;2023-08-01T10:26:53;96441.16;;;23.65
72054;BMP280;59918;51.280;7.950;2023-08-01T10:29:18;96444.72;;;24.09
72054;BMP280;59918;51.280;7.950;2023-08-01T10:31:54;96428.16;;;24.37
72054;BMP280;59918;51.280;7.950;2023-08-01T10:34:19;96434.47;;;24.89
72054;BMP280;59918;51.280;7.950;2023-08-01T10:36:56;96447.03;;;24.51
72054;BMP280;59918;51.280;7.950;2023-08-01T10:39:23;96447.53;;;23.18
72054;BMP280;59918;51.280;7.950;2023-08-01T10:42:05;96456.75;;;23.24
72054;BMP280;59918;51.280;7.950;2023-08-01T10:44:31;96454.03;;;24.27
72054;BMP280;59918;51.280;7.950;2023-08-01T10:46:58;96464.16;;;24.37
72054;BMP280;59918;51.280;7.950;2023-08-01T10:49:34;96448.47;;;24.28
72054;BMP280;59918;51.280;7.950;2023-08-01T10:52:00;96458.69;;;25.73
72054;BMP280;59918;51.280;7.950;2023-08-01T10:54:31;96449.47;;;26.69
72054;BMP280;59918;51.280;7.950;2023-08-01T10:56:57;96447.63;;;27.27
72054;BMP280;59918;51.280;7.950;2023-08-01T10:59:22;96446.06;;;26.96
72054;BMP280;59918;51.280;7.950;2023-08-01T11:01:49;96446.94;;;25.47
72054;BMP280;59918;51.280;7.950;2023-08-01T11:04:20;96452.16;;;25.12
72054;BMP280;59918;51.280;7.950;2023-08-01T11:06:47;96466.00;;;24.89
72054;BMP280;59918;51.280;7.950;2023-08-01T11:09:20;96462.66;;;23.79
72054;BMP280;59918;51.280;7.950;2023-08-01T11:11:49;96458.31;;;23.17
72054;BMP280;59918;51.280;7.950;2023-08-01T11:14:20;96455.19;;;23.23
72054;BMP280;59918;51.280;7.950;2023-08-01T11:16:46;96453.56;;;23.02
72054;BMP280;59918;51.280;7.950;2023-08-01T11:19:23;96451.63;;;22.74
72054;BMP280;59918;51.280;7.950;2023-08-01T11:21:49;96451.66;;;22.49
72054;BMP280;59918;51.280;7.950;2023-08-01T11:24:18;96451.38;;;22.42
72054;BMP280;59918;51.280;7.950;2023-08-01T11:26:45;96451.19;;;22.47
72054;BMP280;59918;51.280;7.950;2023-08-01T11:29:11;96451.50;;;22.37
72054;BMP280;59918;51.280;7.950;2023-08-01T11:34:18;96466.22;;;21.83
72054;BMP280;59918;51.280;7.950;2023-08-01T11:36:43;96494.16;;;20.75
72054;BMP280;59918;51.280;7.950;2023-08-01T11:39:08;96501.63;;;19.18
72054;BMP280;59918;51.280;7.950;2023-08-01T11:41:34;96508.78;;;18.27
72054;BMP280;59918;51.280;7.950;2023-08-01T11:44:05;96499.56;;;17.97
72054;BMP280;59918;51.280;7.950;2023-08-01T11:46:32;96479.75;;;18.01
72054;BMP280;59918;51.280;7.950;2023-08-01T11:48:58;96490.03;;;18.29
72054;BMP280;59918;51.280;7.950;2023-08-01T11:51:23;96481.25;;;18.26
72054;BMP280;59918;51.280;7.950;2023-08-01T11:54:08;96471.41;;;18.23
72054;BMP280;59918;51.280;7.950;2023-08-01T11:56:33;96474.06;;;18.36
72054;BMP280;59918;51.280;7.950;2023-08-01T11:58:58;96467.16;;;18.76
72054;BMP280;59918;51.280;7.950;2023-08-01T12:01:24;96465.25;;;18.82
72054;BMP280;59918;51.280;7.950;2023-08-01T12:03:54;96485.88;;;18.78
72054;BMP280;59918;51.280;7.950;2023-08-01T12:06:22;96485.44;;;18.90
72054;BMP280;59918;51.280;7.950;2023-08-01T12:08:54;96486.00;;;19.45
72054;BMP280;59918;51.280;7.950;2023-08-01T12:11:26;96481.72;;;20.02
72054;BMP280;59918;51.280;7.950;2023-08-01T12:14:13;96490.84;;;20.61
72054;BMP280;59918;51.280;7.950;2023-08-01T12:16:43;96506.22;;;20.85
72054;BMP280;59918;51.280;7.950;2023-08-01T12:19:09;96500.41;;;20.31
72054;BMP280;59918;51.280;7.950;2023-08-01T12:21:35;96512.28;;;19.62
72054;BMP280;59918;51.280;7.950;2023-08-01T12:24:00;96527.91;;;18.72
72054;BMP280;59918;51.280;7.950;2023-08-01T12:26:29;96549.25;;;18.19
72054;BMP280;59918;51.280;7.950;2023-08-01T12:28:54;96539.47;;;18.06
72054;BMP280;59918;51.280;7.950;2023-08-01T12:31:21;96530.03;;;18.70
72054;BMP280;59918;51.280;7.950;2023-08-01T12:33:47;96531.84;;;19.19
72054;BMP280;59918;51.280;7.950;2023-08-01T12:36:19;96524.19;;;21.08
72054;BMP280;59918;51.280;7.950;2023-08-01T12:38:44;96518.81;;;22.28
72054;BMP280;59918;51.280;7.950;2023-08-01T12:41:09;96514.66;;;21.63
72054;BMP280;59918;51.280;7.950;2023-08-01T12:43:35;96515.94;;;21.44
72054;BMP280;59918;51.280;7.950;2023-08-01T12:46:00;96521.03;;;21.88
72054;BMP280;59918;51.280;7.950;2023-08-01T12:48:28;96522.59;;;21.97
72054;BMP280;59918;51.280;7.950;2023-08-01T12:50:54;96531.41;;;21.32
72054;BMP280;59918;51.280;7.950;2023-08-01T12:53:20;96548.06;;;20.71
72054;BMP280;59918;51.280;7.950;2023-08-01T12:55:52;96576.03;;;20.22
72054;BMP280;59918;51.280;7.950;2023-08-01T12:58:18;96587.50;;;19.55
72054;BMP280;59918;51.280;7.950;2023-08-01T13:00:44;96623.59;;;18.80
72054;BMP280;59918;51.280;7.950;2023-08-01T13:03:10;96617.19;;;17.90
72054;BMP280;59918;51.280;7.950;2023-08-01T13:05:36;96617.84;;;17.20
72054;BMP280;59918;51.280;7.950;2023-08-01T13:08:07;96617.38;;;16.80
72054;BMP280;59918;51.280;7.950;2023-08-01T13:10:34;96620.91;;;16.89
72054;BMP280;59918;51.280;7.950;2023-08-01T13:12:59;96624.03;;;17.29
72054;BMP280;59918;51.280;7.950;2023-08-01T13:15:31;96605.34;;;18.02
72054;BMP280;59918;51.280;7.950;2023-08-01T13:17:57;96596.44;;;18.86
72054;BMP280;59918;51.280;7.950;2023-08-01T13:20:22;96593.06;;;19.03
72054;BMP280;59918;51.280;7.950;2023-08-01T13:22:54;96592.06;;;18.81
72054;BMP280;59918;51.280;7.950;2023-08-01T13:25:19;96584.22;;;18.68
72054;BMP280;59918;51.280;7.950;2023-08-01T13:27:44;96582.38;;;18.68
72054;BMP280;59918;51.280;7.950;2023-08-01T13:30:10;96586.63;;;19.14
72054;BMP280;59918;51.280;7.950;2023-08-01T13:32:36;96583.78;;;20.49
72054;BMP280;59918;51.280;7.950;2023-08-01T13:35:01;96572.69;;;23.46
72054;BMP280;59918;51.280;7.950;2023-08-01T13:37:30;96576.81;;;23.56
72054;BMP280;59918;51.280;7.950;2023-08-01T13:39:57;96580.59;;;22.46
72054;BMP280;59918;51.280;7.950;2023-08-01T13:42:22;96582.44;;;22.45
72054;BMP280;59918;51.280;7.950;2023-08-01T13:44:47;96582.88;;;22.22
72054;BMP280;59918;51.280;7.950;2023-08-01T13:47:12;96576.13;;;22.38
72054;BMP280;59918;51.280;7.950;2023-08-01T13:49:38;96570.47;;;24.59
72054;BMP280;59918;51.280;7.950;2023-08-01T13:52:06;96555.09;;;26.76
72054;BMP280;59918;51.280;7.950;2023-08-01T13:54:54;96554.75;;;27.89
72054;BMP280;59918;51.280;7.950;2023-08-01T13:57:19;96549.88;;;29.50
72054;BMP280;59918;51.280;7.950;2023-08-01T13:59:44;96543.59;;;30.83
72054;BMP280;59918;51.280;7.950;2023-08-01T14:02:10;96546.75;;;31.63
72054;BMP280;59918;51.280;7.950;2023-08-01T14:04:35;96537.50;;;33.31
72054;BMP280;59918;51.280;7.950;2023-08-01T14:07:00;96527.22;;;34.58
72054;BMP280;59918;51.280;7.950;2023-08-01T14:09:31;96530.63;;;34.65
72054;BMP280;59918;51.280;7.950;2023-08-01T14:11:56;96540.03;;;32.19